Time;durP1;ratioP1;P1;durP2;ratioP2;P2;SDS_P1;SDS_P2;PMS_P1;PMS_P2;Temp;Humidity;BMP_temperature;BMP_pressure;BME280_temperature;BME280_humidity;BME280_pressure;Samples;Min_cycle;Max_cycle;Signal;HPM_P1;HPM_P2
2023/09/20 00:00:29;;;;;;;;;0.00;0.00;;;;;20.13;61.74;100608.06;5082467;28;45646;-76
2023/09/20 00:02:55;;;;;;;;;2.00;0.00;;;;;20.09;62.49;100599.47;5071292;28;45390;-76
2023/09/20 00:05:21;;;;;;;;;1.00;1.00;;;;;20.05;62.08;100596.16;5069784;27;45269;-77
2023/09/20 00:07:50;;;;;;;;;1.50;0.75;;;;;20.04;62.01;100598.94;5067485;28;47255;-75
2023/09/20 00:10:16;;;;;;;;;1.00;1.00;;;;;20.02;62.20;100591.06;5076509;27;45368;-76
2023/09/20 00:12:44;;;;;;;;;0.75;0.50;;;;;20.02;62.35;100592.88;5067120;28;45218;-77
2023/09/20 00:15:10;;;;;;;;;2.50;0.00;;;;;20.02;62.13;100592.88;5072794;28;45401;-76
2023/09/20 00:17:36;;;;;;;;;1.25;1.00;;;;;20.04;62.14;100598.94;5076516;28;46041;-76
2023/09/20 00:20:14;;;;;;;;;2.50;0.00;;;;;20.03;62.10;100582.16;5078001;27;45375;-76
2023/09/20 00:22:43;;;;;;;;;0.00;0.00;;;;;20.02;62.46;100593.72;5069556;28;45477;-76
2023/09/20 00:25:12;;;;;;;;;8.50;2.75;;;;;20.02;62.72;100598.19;5073048;28;45272;-76
2023/09/20 00:27:39;;;;;;;;;2.50;1.25;;;;;20.01;63.21;100593.81;5077119;28;46063;-76
2023/09/20 00:30:10;;;;;;;;;1.50;1.00;;;;;19.99;62.96;100582.44;5075036;27;45595;-76
2023/09/20 00:32:37;;;;;;;;;1.00;1.00;;;;;19.99;62.51;100577.16;5072547;28;45290;-76
2023/09/20 00:35:02;;;;;;;;;0.00;0.00;;;;;19.98;62.88;100583.44;5076260;28;45573;-77
2023/09/20 00:37:30;;;;;;;;;1.00;1.00;;;;;19.96;63.06;100572.06;5074912;28;47200;-77
2023/09/20 00:39:55;;;;;;;;;2.75;1.00;;;;;19.93;63.31;100575.75;5071915;27;45529;-76
2023/09/20 00:42:20;;;;;;;;;0.25;0.25;;;;;19.94;63.01;100574.81;5076851;28;45540;-77
2023/09/20 00:44:46;;;;;;;;;0.25;0.25;;;;;19.95;62.95;100576.50;5071725;27;45272;-76
2023/09/20 00:47:11;;;;;;;;;0.50;0.50;;;;;19.95;63.13;100575.66;5085429;27;69314;-76
2023/09/20 00:49:37;;;;;;;;;0.25;0.00;;;;;19.90;63.81;100562.69;5068902;27;45599;-77
2023/09/20 00:52:06;;;;;;;;;0.50;0.50;;;;;19.92;63.36;100574.94;5066314;28;48798;-76
2023/09/20 00:54:33;;;;;;;;;1.75;0.50;;;;;19.94;63.36;100564.19;5073581;28;45377;-77
2023/09/20 00:56:58;;;;;;;;;3.00;1.00;;;;;19.94;62.77;100565.97;5076959;27;46268;-76
2023/09/20 00:59:24;;;;;;;;;1.00;1.00;;;;;19.93;63.21;100557.16;5076736;27;45324;-76
2023/09/20 01:01:49;;;;;;;;;1.00;0.50;;;;;19.92;63.34;100550.19;5069788;28;47925;-76
2023/09/20 01:04:14;;;;;;;;;1.00;1.00;;;;;19.88;64.19;100554.84;5066969;27;57980;-76
2023/09/20 01:06:41;;;;;;;;;0.00;0.00;;;;;19.90;63.67;100555.59;5077920;28;66312;-75
2023/09/20 01:09:07;;;;;;;;;1.00;1.00;;;;;19.89;63.92;100559.19;5078977;27;45478;-75
2023/09/20 01:11:34;;;;;;;;;2.75;0.75;;;;;19.86;63.86;100554.09;5073089;27;45581;-76
2023/09/20 01:13:59;;;;;;;;;0.25;0.25;;;;;19.86;64.00;100553.25;5074641;28;63579;-77
2023/09/20 01:16:24;;;;;;;;;0.00;0.00;;;;;19.85;63.78;100556.88;5071293;28;61696;-78
2023/09/20 01:18:50;;;;;;;;;0.00;0.00;;;;;19.83;63.86;100545.47;5071534;27;45403;-77
2023/09/20 01:21:16;;;;;;;;;1.00;1.00;;;;;19.81;63.85;100556.19;5071182;28;45469;-76
2023/09/20 01:23:44;;;;;;;;;2.00;1.00;;;;;19.81;63.85;100553.53;5065937;28;45624;-76
2023/09/20 01:26:13;;;;;;;;;1.50;1.50;;;;;19.77;63.67;100546.75;5070446;28;46220;-76
2023/09/20 01:28:38;;;;;;;;;1.00;1.00;;;;;19.78;64.21;100551.13;5072795;28;45296;-76
2023/09/20 01:31:07;;;;;;;;;1.00;1.00;;;;;19.77;64.38;100545.91;5077526;28;45324;-76
2023/09/20 01:33:33;;;;;;;;;2.00;0.00;;;;;19.75;64.61;100553.97;5072556;28;45507;-76
2023/09/20 01:36:04;;;;;;;;;1.00;1.00;;;;;19.72;64.27;100551.50;5067221;28;46352;-76
2023/09/20 01:38:30;;;;;;;;;1.00;1.00;;;;;19.69;64.46;100547.25;5076753;28;45259;-76
2023/09/20 01:40:58;;;;;;;;;1.25;1.25;;;;;19.68;64.58;100548.19;5074945;27;45577;-75
2023/09/20 01:43:24;;;;;;;;;1.50;1.50;;;;;19.67;64.43;100543.88;5070931;28;45504;-75
2023/09/20 01:45:49;;;;;;;;;1.00;1.00;;;;;19.65;64.88;100543.09;5067753;28;46250;-75
2023/09/20 01:48:15;;;;;;;;;2.00;0.50;;;;;19.65;64.94;100548.41;5073063;28;67415;-76
2023/09/20 01:50:44;;;;;;;;;1.00;1.00;;;;;19.66;65.08;100543.97;5077975;27;45552;-75
2023/09/20 01:53:10;;;;;;;;;1.00;1.00;;;;;19.64;65.31;100540.56;5077549;28;45431;-76
2023/09/20 01:55:37;;;;;;;;;0.00;0.00;;;;;19.61;65.26;100541.63;5079952;27;47415;-75
2023/09/20 01:58:06;;;;;;;;;2.00;0.00;;;;;19.61;65.33;100541.63;5079876;27;45769;-76
2023/09/20 02:00:40;;;;;;;;;1.25;0.00;;;;;19.60;65.51;100537.28;5075332;27;45300;-75
2023/09/20 02:03:19;;;;;;;;;2.00;0.00;;;;;19.58;64.79;100531.19;5075466;28;45494;-76
2023/09/20 02:05:48;;;;;;;;;1.00;1.00;;;;;19.56;65.56;100534.91;5072940;27;45517;-76
2023/09/20 02:08:15;;;;;;;;;1.00;0.00;;;;;19.52;65.35;100532.47;5075218;28;45336;-75
2023/09/20 02:10:41;;;;;;;;;1.00;1.00;;;;;19.51;65.53;100535.22;5076595;27;46096;-76
2023/09/20 02:13:07;;;;;;;;;0.50;0.00;;;;;19.49;65.62;100534.47;5079129;28;45369;-76
2023/09/20 02:15:36;;;;;;;;;1.75;0.00;;;;;19.47;65.71;100525.78;5079253;28;45393;-76
2023/09/20 02:18:06;;;;;;;;;2.00;0.25;;;;;19.42;65.38;100519.94;5071059;28;45745;-76
2023/09/20 02:20:36;;;;;;;;;1.00;0.00;;;;;19.39;66.39;100518.34;5075104;27;45450;-77
2023/09/20 02:23:03;;;;;;;;;1.25;0.50;;;;;19.35;66.59;100517.69;5073265;28;45459;-77
2023/09/20 02:25:29;;;;;;;;;1.25;0.50;;;;;19.34;65.98;100517.81;5071172;28;47016;-78
2023/09/20 02:27:57;;;;;;;;;1.25;1.00;;;;;19.33;66.48;100506.31;5067977;28;45504;-76
2023/09/20 02:30:28;;;;;;;;;3.00;1.00;;;;;19.30;66.29;100505.66;5072553;27;45229;-76
2023/09/20 02:32:57;;;;;;;;;6.25;4.00;;;;;19.26;67.04;100510.34;5075510;28;45465;-77
2023/09/20 02:35:24;;;;;;;;;7.75;7.00;;;;;19.25;66.79;100508.66;5076214;28;45798;-77
2023/09/20 02:37:50;;;;;;;;;4.25;4.00;;;;;19.22;66.75;100503.53;5074350;28;45683;-77
2023/09/20 02:40:17;;;;;;;;;3.50;1.00;;;;;19.22;66.87;100505.34;5074578;27;45531;-77
2023/09/20 02:42:53;;;;;;;;;1.00;1.00;;;;;19.20;66.87;100510.75;5070273;28;45467;-77
2023/09/20 02:45:20;;;;;;;;;1.50;0.00;;;;;19.15;67.60;100502.25;5075112;28;46808;-77
2023/09/20 02:47:46;;;;;;;;;1.00;1.00;;;;;19.16;67.12;100509.28;5086580;28;44984;-76
2023/09/20 02:50:13;;;;;;;;;0.25;0.00;;;;;19.14;67.36;100503.19;5090678;27;44870;-76
2023/09/20 02:52:41;;;;;;;;;1.00;0.00;;;;;19.13;67.23;100507.66;5077983;28;45567;-77
2023/09/20 02:55:07;;;;;;;;;0.50;0.50;;;;;19.11;67.14;100506.91;5074968;28;71285;-77
2023/09/20 02:57:39;;;;;;;;;1.00;1.00;;;;;19.12;66.75;100505.09;5093916;27;45460;-77
2023/09/20 03:00:15;;;;;;;;;1.50;1.00;;;;;19.10;67.26;100507.00;5093317;27;45441;-75
2023/09/20 03:02:55;;;;;;;;;1.00;1.00;;;;;19.11;67.10;100500.78;5075470;28;45298;-75
2023/09/20 03:05:26;;;;;;;;;2.50;0.25;;;;;19.10;67.07;100493.75;5069651;28;45431;-75
2023/09/20 03:07:53;;;;;;;;;1.50;1.00;;;;;19.11;67.48;100488.34;5053391;28;45535;-74
2023/09/20 03:10:22;;;;;;;;;2.50;0.00;;;;;19.11;67.45;100488.34;5076886;28;45422;-75
2023/09/20 03:12:51;;;;;;;;;0.25;0.25;;;;;19.10;67.67;100481.31;5076612;28;45497;-75
2023/09/20 03:15:22;;;;;;;;;1.00;1.00;;;;;19.07;68.04;100473.59;5063227;28;47257;-75
2023/09/20 03:17:49;;;;;;;;;2.00;0.50;;;;;19.08;67.96;100475.28;5069966;28;45655;-75
2023/09/20 03:20:24;;;;;;;;;0.75;0.00;;;;;19.08;68.22;100477.09;5076128;27;45280;-76
2023/09/20 03:22:54;;;;;;;;;0.75;0.00;;;;;19.05;68.03;100466.69;5077896;28;45317;-76
2023/09/20 03:25:21;;;;;;;;;1.50;1.00;;;;;19.06;67.95;100471.88;5069988;28;45441;-76
2023/09/20 03:27:48;;;;;;;;;2.00;1.00;;;;;19.04;68.21;100465.84;5069706;28;45492;-77
2023/09/20 03:30:14;;;;;;;;;0.00;0.00;;;;;19.05;68.79;100464.91;5070498;27;45349;-75
2023/09/20 03:32:42;;;;;;;;;2.00;0.00;;;;;19.04;68.26;100459.69;5065251;28;45489;-75
2023/09/20 03:35:11;;;;;;;;;1.00;1.00;;;;;19.01;69.38;100450.13;5069440;28;45836;-75
2023/09/20 03:37:37;;;;;;;;;1.75;0.00;;;;;19.01;69.38;100455.44;5076361;28;45287;-74
2023/09/20 03:40:17;;;;;;;;;0.00;0.00;;;;;19.00;68.40;100451.09;5079665;27;45408;-76
2023/09/20 03:42:43;;;;;;;;;1.00;1.00;;;;;19.00;68.39;100444.91;5074477;27;45457;-76
2023/09/20 03:45:10;;;;;;;;;1.00;0.75;;;;;18.99;68.33;100441.44;5073888;27;45387;-76
2023/09/20 03:47:39;;;;;;;;;1.00;1.00;;;;;18.98;69.94;100445.03;5077469;28;45521;-76
2023/09/20 03:50:06;;;;;;;;;1.25;0.00;;;;;18.96;68.58;100437.19;5082373;27;45476;-76
2023/09/20 03:52:32;;;;;;;;;1.00;1.00;;;;;18.95;68.67;100432.00;5074303;28;45515;-76
2023/09/20 03:54:58;;;;;;;;;1.00;0.00;;;;;18.96;68.73;100433.66;5077854;28;67927;-76
2023/09/20 03:57:24;;;;;;;;;1.00;1.00;;;;;18.96;68.90;100428.38;5071083;28;45484;-77
2023/09/20 03:59:53;;;;;;;;;1.00;0.00;;;;;18.96;68.89;100426.59;5076111;27;45557;-76
2023/09/20 04:02:25;;;;;;;;;1.25;0.25;;;;;18.95;69.40;100424.03;5090076;27;45429;-75
2023/09/20 04:04:51;;;;;;;;;1.00;0.75;;;;;18.94;69.55;100420.50;5076758;28;45359;-77
2023/09/20 04:07:17;;;;;;;;;1.75;1.00;;;;;18.94;69.33;100433.75;5078955;28;45898;-76
2023/09/20 04:09:44;;;;;;;;;2.50;0.25;;;;;18.92;68.91;100424.22;5081372;27;45511;-74
2023/09/20 04:12:10;;;;;;;;;0.50;0.50;;;;;18.90;68.95;100429.63;5080432;28;45286;-76
2023/09/20 04:14:36;;;;;;;;;1.00;1.00;;;;;18.93;68.95;100425.94;5070786;28;45297;-77
2023/09/20 04:17:04;;;;;;;;;0.50;0.50;;;;;18.94;69.19;100423.16;5070223;28;61946;-75
2023/09/20 04:19:30;;;;;;;;;1.00;1.00;;;;;18.95;69.25;100418.72;5080352;27;45487;-75
2023/09/20 04:21:56;;;;;;;;;0.50;0.50;;;;;18.95;69.32;100422.22;5081575;27;45548;-75
2023/09/20 04:24:21;;;;;;;;;3.00;0.25;;;;;18.96;69.36;100421.28;5076184;28;46320;-75
2023/09/20 04:26:46;;;;;;;;;0.00;0.00;;;;;18.99;69.38;100414.06;5079530;28;45267;-76
2023/09/20 04:29:12;;;;;;;;;2.00;0.50;;;;;18.99;69.17;100403.47;5076281;27;68547;-75
2023/09/20 04:31:37;;;;;;;;;1.75;1.00;;;;;19.02;68.85;100406.75;5075323;28;64386;-76
2023/09/20 04:34:03;;;;;;;;;1.00;1.00;;;;;19.05;69.28;100406.56;5069352;28;46072;-76
2023/09/20 04:36:28;;;;;;;;;0.00;0.00;;;;;19.05;69.50;100392.41;5092152;27;70714;-76
2023/09/20 04:38:57;;;;;;;;;2.00;0.00;;;;;19.04;69.30;100396.03;5081271;27;45273;-76
2023/09/20 04:41:22;;;;;;;;;2.50;1.00;;;;;19.03;69.38;100392.53;5070776;27;45459;-76
2023/09/20 04:43:48;;;;;;;;;3.00;1.00;;;;;19.00;69.17;100386.56;5079709;28;46133;-76
2023/09/20 04:46:14;;;;;;;;;1.00;0.50;;;;;18.99;69.30;100392.84;5075821;28;45769;-76
2023/09/20 04:48:40;;;;;;;;;1.00;1.00;;;;;18.98;69.78;100384.03;5082432;27;45520;-76
2023/09/20 04:51:05;;;;;;;;;1.00;1.00;;;;;18.96;69.89;100383.28;5068874;27;45730;-76
2023/09/20 04:53:33;;;;;;;;;1.00;1.00;;;;;18.95;69.82;100378.94;5071593;28;56987;-75
2023/09/20 04:55:59;;;;;;;;;5.50;0.75;;;;;18.94;69.64;100379.88;5072108;28;45399;-75
2023/09/20 04:58:24;;;;;;;;;1.00;0.75;;;;;18.91;69.66;100372.13;5070722;28;45418;-76
2023/09/20 05:00:49;;;;;;;;;4.00;1.75;;;;;18.90;69.73;100381.91;5068934;27;45260;-75
2023/09/20 05:03:16;;;;;;;;;1.00;0.75;;;;;18.88;69.73;100380.31;5078395;28;46584;-76
2023/09/20 05:05:44;;;;;;;;;1.00;1.00;;;;;18.87;69.59;100378.59;5072411;28;45711;-76
2023/09/20 05:08:09;;;;;;;;;1.00;1.00;;;;;18.87;69.63;100374.16;5078331;28;45524;-76
2023/09/20 05:10:34;;;;;;;;;1.00;0.50;;;;;18.85;69.69;100373.41;5076634;27;45634;-76
2023/09/20 05:13:00;;;;;;;;;2.00;1.00;;;;;18.85;69.63;100372.56;5095484;27;68632;-76
2023/09/20 05:15:26;;;;;;;;;2.00;1.00;;;;;18.83;69.69;100383.28;5071196;28;45425;-76
2023/09/20 05:17:51;;;;;;;;;1.50;1.00;;;;;18.84;69.73;100384.09;5071902;28;68050;-75
2023/09/20 05:20:16;;;;;;;;;3.00;1.00;;;;;18.78;69.73;100380.88;5071450;27;59746;-75
2023/09/20 05:22:42;;;;;;;;;2.00;1.00;;;;;18.78;70.38;100372.09;5070182;28;47401;-75
2023/09/20 05:25:08;;;;;;;;;0.50;0.50;;;;;18.75;69.82;100380.25;5070338;28;69532;-76
2023/09/20 05:27:34;;;;;;;;;0.25;0.25;;;;;18.74;69.92;100379.41;5070724;28;45224;-77
2023/09/20 05:29:59;;;;;;;;;1.25;0.00;;;;;18.71;70.35;100382.25;5067043;27;70979;-78
2023/09/20 05:32:25;;;;;;;;;1.00;1.00;;;;;18.72;70.52;100380.47;5087586;27;51447;-74
2023/09/20 05:34:50;;;;;;;;;3.00;0.00;;;;;18.71;70.14;100378.75;5073417;28;45179;-69
2023/09/20 05:37:16;;;;;;;;;1.00;1.00;;;;;18.69;70.10;100380.66;5069255;28;45419;-71
2023/09/20 05:39:43;;;;;;;;;2.00;0.25;;;;;18.71;70.04;100386.72;5068771;27;45454;-81
2023/09/20 05:42:09;;;;;;;;;4.75;3.00;;;;;18.71;70.03;100384.06;5066814;28;46248;-72
2023/09/20 05:44:36;;;;;;;;;3.00;1.00;;;;;18.70;70.03;100385.03;5073896;27;45429;-73
2023/09/20 05:47:03;;;;;;;;;2.25;1.00;;;;;18.69;70.12;100378.00;5070479;27;45181;-72
2023/09/20 05:49:29;;;;;;;;;3.50;0.50;;;;;18.68;69.99;100384.25;5076358;27;45542;-72
2023/09/20 05:51:56;;;;;;;;;1.50;1.00;;;;;18.69;70.11;100378.84;5066002;28;46848;-77
2023/09/20 05:54:21;;;;;;;;;1.00;1.00;;;;;18.64;70.54;100365.06;5074204;27;45788;-73
2023/09/20 05:56:48;;;;;;;;;1.50;1.00;;;;;18.70;70.02;100369.97;5075624;27;45433;-74
2023/09/20 05:59:13;;;;;;;;;3.00;1.00;;;;;18.70;70.09;100363.81;5076387;27;45732;-74
2023/09/20 06:01:40;;;;;;;;;1.50;1.50;;;;;18.71;70.00;100355.75;5070850;27;46233;-74
2023/09/20 06:04:11;;;;;;;;;2.75;1.00;;;;;18.74;69.87;100360.84;5068790;28;45749;-74
2023/09/20 06:06:38;;;;;;;;;5.25;1.00;;;;;18.75;71.24;100351.94;5070570;28;45524;-74
2023/09/20 06:09:04;;;;;;;;;3.25;1.00;;;;;18.74;70.49;100347.59;5074563;28;45351;-75
2023/09/20 06:11:29;;;;;;;;;1.75;1.75;;;;;18.73;70.45;100334.44;5074408;28;46271;-76
2023/09/20 06:13:55;;;;;;;;;1.00;0.50;;;;;18.74;70.33;100336.16;5072826;28;45515;-78
2023/09/20 06:16:23;;;;;;;;;4.00;2.00;;;;;18.72;70.31;100338.06;5076697;28;45558;-76
2023/09/20 06:18:49;;;;;;;;;2.00;2.00;;;;;18.74;70.46;100337.00;5079288;27;45447;-77
2023/09/20 06:21:17;;;;;;;;;2.50;2.00;;;;;18.75;70.28;100330.75;5072906;28;45385;-75
2023/09/20 06:23:43;;;;;;;;;2.00;2.00;;;;;18.75;70.25;100338.69;5071835;28;45865;-73
2023/09/20 06:26:12;;;;;;;;;2.50;2.00;;;;;18.77;70.71;100338.59;5078196;28;45450;-75
2023/09/20 06:28:42;;;;;;;;;3.50;2.00;;;;;18.78;70.95;100348.22;5074096;27;45518;-72
2023/09/20 06:31:12;;;;;;;;;5.00;2.00;;;;;18.81;70.52;100348.03;5054052;28;47837;-74
2023/09/20 06:33:46;;;;;;;;;4.25;2.00;;;;;18.82;70.12;100352.41;5073759;28;45333;-73
2023/09/20 06:36:16;;;;;;;;;4.00;3.00;;;;;18.87;69.88;100354.75;5064196;28;45651;-72
2023/09/20 06:38:42;;;;;;;;;2.00;2.00;;;;;18.89;70.08;100356.34;5070753;27;45658;-69
2023/09/20 06:41:07;;;;;;;;;6.00;3.00;;;;;18.91;70.18;100349.16;5074414;27;46309;-69
2023/09/20 06:43:33;;;;;;;;;1.00;1.00;;;;;18.95;69.85;100353.28;5053188;28;47641;-69
2023/09/20 06:46:02;;;;;;;;;2.75;2.00;;;;;19.02;70.26;100352.88;5072268;28;57404;-69
2023/09/20 06:48:29;;;;;;;;;2.75;2.00;;;;;19.05;69.47;100353.50;5069198;28;45210;-73
2023/09/20 06:50:55;;;;;;;;;3.25;2.00;;;;;19.07;70.41;100350.72;5070830;27;46296;-74
2023/09/20 06:53:23;;;;;;;;;3.25;2.00;;;;;19.05;69.63;100347.34;5058723;28;45279;-74
2023/09/20 06:55:49;;;;;;;;;2.00;2.00;;;;;19.10;69.57;100351.34;5088735;27;45538;-73
2023/09/20 06:58:14;;;;;;;;;1.00;1.00;;;;;19.13;69.93;100358.28;5067483;28;45513;-69
2023/09/20 07:00:40;;;;;;;;;3.25;3.00;;;;;19.14;69.31;100358.19;5077210;27;45496;-70
2023/09/20 07:03:05;;;;;;;;;4.50;2.00;;;;;19.16;69.48;100353.59;5071054;28;45518;-72
2023/09/20 07:05:31;;;;;;;;;2.00;2.00;;;;;19.18;68.89;100353.50;5079661;28;45515;-69
2023/09/20 07:08:00;;;;;;;;;3.00;2.00;;;;;19.20;69.22;100350.75;5070826;28;45309;-71
2023/09/20 07:10:26;;;;;;;;;4.00;1.00;;;;;19.23;68.89;100353.16;5074589;28;45462;-71
2023/09/20 07:12:54;;;;;;;;;2.00;2.00;;;;;19.24;69.14;100358.38;5072784;28;45209;-72
2023/09/20 07:15:20;;;;;;;;;1.00;1.00;;;;;19.28;68.96;100356.34;5063288;28;45355;-69
2023/09/20 07:17:46;;;;;;;;;4.00;2.00;;;;;19.32;69.06;100360.50;5072536;28;45528;-69
2023/09/20 07:20:29;;;;;;;;;3.00;2.00;;;;;19.37;68.86;100361.03;5077432;27;46056;-71
2023/09/20 07:22:55;;;;;;;;;3.50;3.00;;;;;19.42;68.56;100355.38;5070283;28;45422;-71
2023/09/20 07:25:21;;;;;;;;;3.25;2.00;;;;;19.43;68.23;100360.59;5076417;27;45333;-71
2023/09/20 07:27:55;;;;;;;;;3.25;1.50;;;;;19.45;68.62;100355.19;5068070;28;45341;-70
2023/09/20 07:30:22;;;;;;;;;3.00;3.00;;;;;19.48;68.23;100355.81;5069455;27;47059;-71
2023/09/20 07:32:49;;;;;;;;;2.00;2.00;;;;;19.56;68.17;100349.13;5071476;28;45888;-70
2023/09/20 07:35:28;;;;;;;;;4.00;2.00;;;;;19.61;68.14;100354.94;5068497;28;45493;-72
2023/09/20 07:37:57;;;;;;;;;3.75;2.00;;;;;19.65;67.74;100356.41;5073184;28;45493;-69
2023/09/20 07:40:28;;;;;;;;;5.00;2.25;;;;;19.68;67.96;100346.44;5072297;27;47196;-69
2023/09/20 07:42:59;;;;;;;;;4.50;3.00;;;;;19.71;67.76;100351.53;5072983;28;45589;-71
2023/09/20 07:45:32;;;;;;;;;3.25;2.25;;;;;19.74;67.80;100347.81;5067842;28;45372;-71
2023/09/20 07:47:57;;;;;;;;;2.50;2.50;;;;;19.77;67.38;100344.13;5068763;28;45672;-71
2023/09/20 07:50:23;;;;;;;;;2.25;2.00;;;;;19.82;67.21;100347.28;5071460;27;47663;-76
2023/09/20 07:52:50;;;;;;;;;5.25;2.00;;;;;19.87;67.00;100339.84;5067868;27;45336;-77
2023/09/20 07:55:17;;;;;;;;;3.00;3.00;;;;;19.92;67.00;100341.22;5072486;28;45222;-78
2023/09/20 07:57:42;;;;;;;;;4.50;3.25;;;;;19.95;66.86;100337.47;5064131;28;45388;-69
2023/09/20 08:00:10;;;;;;;;;4.50;4.25;;;;;19.97;67.02;100338.19;5069698;27;45464;-71
2023/09/20 08:02:37;;;;;;;;;16.50;11.00;;;;;20.00;67.05;100342.44;5074521;28;45523;-68
2023/09/20 08:05:02;;;;;;;;;6.25;4.00;;;;;20.05;66.83;100338.50;5059733;28;45275;-68
2023/09/20 08:07:28;;;;;;;;;4.75;2.00;;;;;20.10;66.70;100339.00;5070583;28;45417;-69
2023/09/20 08:09:53;;;;;;;;;3.75;2.00;;;;;20.14;66.57;100334.31;5069872;27;58255;-68
2023/09/20 08:12:18;;;;;;;;;5.25;2.00;;;;;20.19;66.55;100336.66;5073566;28;70985;-69
2023/09/20 08:14:44;;;;;;;;;4.00;1.50;;;;;20.23;65.98;100336.28;5073162;28;45218;-68
2023/09/20 08:19:53;;;;;;;;;3.25;2.00;;;;;20.34;65.93;100335.50;5071772;27;45226;-73
2023/09/20 08:22:18;;;;;;;;;4.75;2.50;;;;;20.41;65.66;100335.88;5047969;27;45298;-68
2023/09/20 09:00:31;;;;;;;;;2.00;2.00;;;;;21.81;61.65;100349.06;5080013;27;45498;-70
2023/09/20 09:03:04;;;;;;;;;2.00;2.00;;;;;21.86;61.70;100336.22;5072472;27;48210;-70
2023/09/20 09:05:30;;;;;;;;;2.75;1.00;;;;;21.93;60.89;100337.41;5078036;28;45271;-72
2023/09/20 09:08:01;;;;;;;;;1.00;1.00;;;;;21.99;61.21;100334.28;5076388;27;45279;-68
2023/09/20 09:10:27;;;;;;;;;11.75;9.50;;;;;22.02;60.58;100329.66;5073235;28;45518;-68
2023/09/20 09:12:53;;;;;;;;;5.00;3.50;;;;;22.04;60.24;100335.72;5071610;28;46054;-70
2023/09/20 09:15:21;;;;;;;;;3.25;2.00;;;;;22.05;60.30;100327.59;5054929;28;45353;-72
2023/09/20 09:17:47;;;;;;;;;6.25;3.00;;;;;22.09;59.25;100321.03;5074805;28;45309;-72
2023/09/20 09:20:15;;;;;;;;;2.25;2.00;;;;;22.07;58.93;100322.97;5072812;27;45468;-71
2023/09/20 09:22:41;;;;;;;;;5.25;2.75;;;;;22.05;59.49;100316.09;5071122;28;45539;-73
2023/09/20 09:25:12;;;;;;;;;2.00;2.00;;;;;22.09;60.08;100314.84;5069963;27;45564;-69
2023/09/20 09:27:39;;;;;;;;;4.25;2.25;;;;;22.11;59.46;100308.41;5061570;28;45317;-68
2023/09/20 09:30:07;;;;;;;;;2.25;2.25;;;;;22.13;58.84;100301.16;5067886;27;45682;-71
2023/09/20 09:32:36;;;;;;;;;7.00;5.75;;;;;22.21;59.98;100292.53;5067506;28;47549;-72
2023/09/20 09:35:05;;;;;;;;;23.50;21.00;;;;;22.26;59.25;100290.31;5072883;28;46225;-70
2023/09/20 09:37:31;;;;;;;;;4.00;2.75;;;;;22.25;58.32;100282.44;5077169;28;45440;-70
2023/09/20 09:40:01;;;;;;;;;2.25;2.00;;;;;22.19;57.59;100273.16;5070915;27;45490;-71
2023/09/20 09:42:28;;;;;;;;;0.75;0.50;;;;;22.15;58.29;100266.38;5080604;28;46798;-69
2023/09/20 09:44:55;;;;;;;;;2.00;2.00;;;;;22.10;57.81;100264.09;5078263;28;45458;-69
2023/09/20 09:47:20;;;;;;;;;1.50;0.75;;;;;22.09;56.80;100262.41;5072598;28;45307;-69
2023/09/20 09:49:51;;;;;;;;;3.00;3.00;;;;;22.04;56.83;100253.09;5072273;27;45417;-70
2023/09/20 09:52:17;;;;;;;;;5.25;2.75;;;;;22.00;57.16;100252.50;5070357;28;46449;-72
2023/09/20 09:54:46;;;;;;;;;4.25;2.75;;;;;21.98;57.94;100260.63;5075547;28;45639;-73
2023/09/20 09:57:12;;;;;;;;;5.00;3.00;;;;;21.99;57.27;100265.00;5070264;28;45327;-73
2023/09/20 09:59:39;;;;;;;;;1.75;1.75;;;;;21.98;56.70;100259.78;5069125;27;45577;-73
2023/09/20 10:02:14;;;;;;;;;1.75;1.00;;;;;21.96;56.42;100246.59;5071567;28;46126;-72
2023/09/20 10:04:41;;;;;;;;;4.00;2.00;;;;;21.95;55.28;100244.88;5061000;28;45657;-72
2023/09/20 10:07:15;;;;;;;;;42.75;32.25;;;;;21.97;56.19;100250.97;5072633;28;45520;-73
2023/09/20 10:09:42;;;;;;;;;8.25;6.75;;;;;21.98;55.93;100238.47;5066950;27;45971;-74
2023/09/20 10:12:08;;;;;;;;;2.25;2.25;;;;;21.98;54.49;100243.81;5080713;28;46190;-74
2023/09/20 10:14:36;;;;;;;;;4.00;3.00;;;;;22.01;55.63;100238.22;5078903;28;45359;-73
2023/09/20 10:17:08;;;;;;;;;2.00;2.00;;;;;22.07;55.46;100235.03;5069344;27;45271;-73
2023/09/20 10:19:34;;;;;;;;;22.75;17.25;;;;;22.12;55.04;100230.16;5078356;27;45465;-74
2023/09/20 10:22:09;;;;;;;;;2.75;2.75;;;;;22.18;54.80;100221.66;5078879;27;46223;-73
2023/09/20 10:24:50;;;;;;;;;3.50;2.00;;;;;22.25;54.73;100219.31;5078820;27;45339;-74
2023/09/20 10:27:20;;;;;;;;;4.75;3.00;;;;;22.31;54.68;100221.50;5075940;27;45370;-74
2023/09/20 10:30:09;;;;;;;;;3.00;1.50;;;;;22.37;52.49;100217.47;5074537;27;45395;-73
2023/09/20 10:32:38;;;;;;;;;2.00;2.00;;;;;22.44;53.14;100204.47;5070095;28;45667;-73
2023/09/20 10:35:31;;;;;;;;;2.75;2.00;;;;;22.53;51.32;100201.84;5078384;27;45260;-73
2023/09/20 10:38:08;;;;;;;;;2.25;2.00;;;;;22.60;51.82;100194.16;5073661;27;45236;-72
2023/09/20 10:40:49;;;;;;;;;2.75;1.00;;;;;22.70;52.17;100203.06;5068585;27;45446;-73
2023/09/20 10:43:41;;;;;;;;;3.25;2.25;;;;;22.78;50.31;100199.72;5075937;27;45370;-73
2023/09/20 10:46:17;;;;;;;;;2.75;1.25;;;;;22.84;50.50;100206.34;5065522;28;45636;-73
2023/09/20 10:48:50;;;;;;;;;2.75;1.50;;;;;22.90;51.37;100198.66;5062945;27;45761;-73
2023/09/20 10:51:54;;;;;;;;;2.25;2.25;;;;;23.01;50.80;100195.03;5066903;27;45439;-73
2023/09/20 10:54:29;;;;;;;;;4.00;1.75;;;;;23.10;48.18;100188.91;5017241;28;46277;-72
2023/09/20 10:56:58;;;;;;;;;4.75;2.50;;;;;23.14;48.08;100181.47;5014335;28;45738;-72
2023/09/20 10:59:27;;;;;;;;;4.00;3.50;;;;;23.20;48.25;100190.78;5040171;27;45510;-72
2023/09/20 11:01:53;;;;;;;;;23.75;20.50;;;;;23.22;48.32;100168.31;5073618;27;50239;-73
2023/09/20 11:04:19;;;;;;;;;0.00;0.00;;;;;23.27;48.50;100170.56;5070976;28;47399;-71
2023/09/20 11:06:48;;;;;;;;;1.25;1.25;;;;;23.27;45.85;100173.25;5084227;28;47061;-71
2023/09/20 11:09:15;;;;;;;;;2.00;2.00;;;;;23.31;47.08;100177.31;5067657;27;45178;-71
2023/09/20 11:11:42;;;;;;;;;1.00;1.00;;;;;23.36;48.43;100183.09;5074360;27;45412;-74
2023/09/20 11:14:08;;;;;;;;;4.50;3.00;;;;;23.44;49.52;100171.72;5065618;28;47009;-73
2023/09/20 11:16:34;;;;;;;;;1.25;1.25;;;;;23.49;47.93;100190.84;5060101;28;45824;-76
2023/09/20 11:18:59;;;;;;;;;9.25;7.50;;;;;23.57;48.69;100177.66;5081877;27;45269;-86
2023/09/20 11:21:25;;;;;;;;;8.50;6.00;;;;;23.56;46.57;100170.59;5078093;28;45401;-80
2023/09/20 11:23:53;;;;;;;;;3.00;2.00;;;;;23.64;46.54;100184.13;5061086;28;73720;-78
2023/09/20 11:26:28;;;;;;;;;1.25;0.25;;;;;23.64;45.36;100170.75;5072949;28;45519;-79
2023/09/20 11:28:54;;;;;;;;;2.00;1.00;;;;;23.66;46.03;100158.09;5069886;27;45466;-80
2023/09/20 11:31:27;;;;;;;;;3.00;3.00;;;;;23.69;46.39;100160.50;5079904;27;45726;-83
2023/09/20 11:34:00;;;;;;;;;0.25;0.25;;;;;23.74;46.24;100154.72;5077053;27;45510;-83
2023/09/20 11:36:26;;;;;;;;;2.25;1.50;;;;;23.80;47.06;100148.00;5066641;27;45593;-82
2023/09/20 11:38:53;;;;;;;;;1.00;1.00;;;;;23.84;47.50;100141.41;5071961;27;45424;-82
2023/09/20 11:41:21;;;;;;;;;3.00;0.50;;;;;23.89;47.09;100147.16;5071068;28;45649;-82
2023/09/20 11:43:47;;;;;;;;;2.25;2.00;;;;;23.93;46.75;100145.88;5067075;28;46044;-81
2023/09/20 11:46:13;;;;;;;;;2.25;1.00;;;;;23.98;46.43;100135.63;5072156;28;45050;-82
2023/09/20 11:48:38;;;;;;;;;3.50;1.25;;;;;24.02;45.44;100128.16;5059697;27;45339;-82
2023/09/20 11:51:04;;;;;;;;;2.00;1.75;;;;;24.12;46.92;100139.69;5076881;27;45458;-82
2023/09/20 11:53:30;;;;;;;;;1.25;1.25;;;;;24.16;45.97;100132.22;5078798;28;46297;-80
2023/09/20 11:55:58;;;;;;;;;1.25;1.25;;;;;24.23;46.29;100136.81;5068626;28;45350;-80
2023/09/20 11:58:23;;;;;;;;;1.25;1.25;;;;;24.29;46.19;100118.53;5052844;28;45493;-76
2023/09/20 12:00:49;;;;;;;;;2.25;2.25;;;;;24.38;46.50;100126.53;5077948;27;73566;-75
2023/09/20 12:03:15;;;;;;;;;1.75;0.75;;;;;24.55;46.30;100124.94;5082676;28;45386;-71
2023/09/20 12:05:41;;;;;;;;;24.25;20.25;;;;;24.68;46.23;100131.78;5077247;28;46306;-73